Latest Coastal Weather Observations for Wyndham Airport

IDW60701

Issued at 8:53 pm WST Tuesday 30 May 2017 (issued every 10 minutes, with the page automatically refreshed every 10 minutes)

About coastal observations | Map of coastal stations | Coastal observations for WA | Marine services | Other Formats
Station Details ID: 001006 Name: WYNDHAM AERO Lat: -15.51 Lon: 128.15 Height: 3.8 m
Data from the previous 72 hours. | See also: Recent months at Wyndham Airport
Date/Time
WST
Temp
°C
Wind Pressure Rain since
9am
mm
Weather Cloud Vis
km
Sea
Height
m
Swell
Dir  Spd
kts
Gust
kts
hPa Trend Height
m
Period
s
Dir
30/08:30pm 20.5 E 4 5 1017.1 - 0.0 - - - - - - -
30/08:00pm 21.5 ESE 4 5 1017.1 - 0.0 - - - - - - -
30/07:30pm 21.8 ESE 4 6 1017.0 - 0.0 - - - - - - -
30/07:00pm 22.4 ESE 4 5 1016.6 - 0.0 - - - - - - -
30/06:30pm 24.5 E 6 7 1016.1 - 0.0 - - - - - - -
30/06:00pm 26.0 SE 7 8 1015.7 - 0.0 - - - - - - -
30/05:30pm 25.9 SSE 7 9 1015.0 - 0.0 - - - - - - -
30/05:00pm 29.2 ESE 10 15 1014.6 - 0.0 - - - - - - -
30/04:30pm 30.2 ESE 13 18 1014.3 - 0.0 - - - - - - -
30/04:00pm 31.4 ESE 13 17 1014.1 - 0.0 - - - - - - -
30/03:30pm 31.5 ESE 14 17 1014.1 - 0.0 - - - - - - -
30/03:00pm 32.4 ESE 16 21 1013.9 - 0.0 - - - - - - -
30/02:30pm 32.4 ESE 17 22 1014.1 - 0.0 - - - - - - -
30/02:00pm 32.6 E 16 23 1014.3 - 0.0 - - - - - - -
30/01:30pm 32.3 E 18 24 1014.4 - 0.0 - - - - - - -
30/01:00pm 32.2 ESE 17 25 1014.6 - 0.0 - - - - - - -
30/12:30pm 32.3 E 18 25 1014.9 - 0.0 - - - - - - -
30/12:00pm 31.9 ESE 17 25 1015.5 - 0.0 - - - - - - -
30/11:30am 32.1 E 18 24 1015.9 - 0.0 - - - - - - -
30/11:00am 31.5 E 14 21 1016.2 - 0.0 - - - - - - -
30/10:30am 30.8 ESE 13 18 1016.6 - 0.0 - - - - - - -
30/10:00am 30.1 ESE 15 20 1017.1 - 0.0 - - - - - - -
30/09:30am 29.5 ESE 14 19 1017.5 - 0.0 - - - - - - -
30/09:00am 29.0 ESE 16 21 1017.5 - 0.0 - - - - - - -
30/08:30am 28.1 ESE 16 22 1017.4 - 0.0 - - - - - - -
30/08:00am 27.2 ESE 12 16 1017.4 - 0.0 - - - - - - -
30/07:30am 25.7 ESE 7 9 1017.1 - 0.0 - - - - - - -
30/07:00am 24.5 ESE 6 8 1016.9 - 0.0 - - - - - - -
30/06:30am 21.0 ESE 2 4 1016.7 - 0.0 - - - - - - -
30/06:00am 18.4 E 5 6 1016.2 - 0.0 - - - - - - -
30/05:30am 18.9 E 4 5 1016.0 - 0.0 - - - - - - -
30/05:00am 20.6 SE 6 7 1015.8 - 0.0 - - - - - - -
30/04:30am 20.8 SE 3 4 1015.7 - 0.0 - - - - - - -
30/04:00am 21.9 SE 5 6 1015.5 - 0.0 - - - - - - -
30/03:30am 24.4 E 9 11 1015.2 - 0.0 - - - - - - -
30/03:00am 24.7 E 11 13 1015.1 - 0.0 - - - - - - -
30/02:30am 24.7 E 11 15 1014.9 - 0.0 - - - - - - -
30/02:00am 24.3 E 10 12 1015.0 - 0.0 - - - - - - -
30/01:30am 24.2 E 9 12 1015.0 - 0.0 - - - - - - -
30/01:00am 23.2 E 8 9 1015.0 - 0.0 - - - - - - -
30/12:30am 22.6 E 7 9 1015.1 - 0.0 - - - - - - -
30/12:00am 19.8 E 6 7 1015.1 - 0.0 - - - - - - -
 
Date/Time
WST
Temp
°C
Wind Pressure Rain since
9am
mm
Weather Cloud Vis
km
Sea
Height
m
Swell
Dir  Spd
kts
Gust
kts
hPa Trend Height
m
Period
s
Dir
29/11:30pm 20.3 E 3 5 1015.1 - 0.0 - - - - - - -
29/11:00pm 20.4 SE 4 4 1014.9 - 0.0 - - - - - - -
29/10:30pm 20.9 ESE 3 4 1015.1 - 0.0 - - - - - - -
29/10:00pm 21.0 ESE 4 5 1015.2 - 0.0 - - - - - - -
29/09:30pm 21.0 CALM 0 2 1015.2 - 0.0 - - - - - - -
29/09:00pm 21.7 SE 4 4 1015.1 - 0.0 - - - - - - -
29/08:30pm 22.3 E 3 4 1015.0 - 0.0 - - - - - - -
29/08:00pm 24.1 E 6 7 1015.0 - 0.0 - - - - - - -
29/07:30pm 23.8 ESE 7 8 1014.7 - 0.0 - - - - - - -
29/07:00pm 25.3 ESE 7 9 1014.4 - 0.0 - - - - - - -
29/06:30pm 25.7 SE 8 9 1014.0 - 0.0 - - - - - - -
29/06:00pm 26.0 ESE 7 8 1013.7 - 0.0 - - - - - - -
29/05:30pm 26.2 ESE 7 8 1013.5 - 0.0 - - - - - - -
29/05:00pm 28.5 ESE 7 8 1013.1 - 0.0 - - - - - - -
29/04:30pm 30.7 ESE 11 14 1012.8 - 0.0 - - - - - - -
29/04:00pm 32.1 ESE 11 14 1012.5 - 0.0 - - - - - - -
29/03:30pm 32.8 E 13 19 1012.3 - 0.0 - - - - - - -
29/03:00pm 33.1 E 13 18 1012.2 - 0.0 - - - - - - -
29/02:30pm 33.7 E 12 17 1012.3 - 0.0 - - - - - - -
29/02:00pm 33.9 E 14 22 1012.2 - 0.0 - - - - - - -
29/01:30pm 34.1 E 14 19 1012.2 - 0.0 - - - - - - -
29/01:00pm 34.1 ESE 12 18 1012.4 - 0.0 - - - - - - -
29/12:30pm 33.8 ESE 15 20 1012.6 - 0.0 - - - - - - -
29/12:00pm 33.4 E 11 18 1013.0 - 0.0 - - - - - - -
29/11:30am 33.4 ENE 13 19 1013.6 - 0.0 - - - - - - -
29/11:00am 33.0 ENE 12 19 1014.1 - 0.0 - - - - - - -
29/10:30am 32.5 E 11 16 1014.4 - 0.0 - - - - - - -
29/10:00am 32.0 E 10 16 1014.7 - 0.0 - - - - - - -
29/09:30am 30.2 E 8 11 1014.8 - 0.0 - - - - - - -
29/09:00am 30.0 E 7 9 1014.9 - 0.0 - - - - - - -
29/08:30am 29.5 E 7 9 1014.7 - 0.0 - - - - - - -
29/08:00am 29.2 E 5 7 1014.6 - 0.0 - - - - - - -
29/07:30am 27.1 SE 3 4 1014.7 - 0.0 - - - - - - -
29/07:00am 25.3 ENE 4 5 1014.3 - 0.0 - - - - - - -
29/06:30am 24.3 SE 4 5 1013.8 - 0.0 - - - - - - -
29/06:00am 23.3 E 4 5 1013.3 - 0.0 - - - - - - -
29/05:30am 23.7 ENE 4 5 1013.1 - 0.0 - - - - - - -
29/05:00am 23.6 E 4 5 1013.0 - 0.0 - - - - - - -
29/04:30am 23.9 ENE 3 5 1012.8 - 0.0 - - - - - - -
29/04:00am 24.4 ENE 1 4 1012.4 - 0.0 - - - - - - -
29/03:30am 25.1 CALM 0 2 1012.2 - 0.0 - - - - - - -
29/03:00am 25.5 NE 3 3 1012.2 - 0.0 - - - - - - -
29/02:30am 25.4 ENE 4 5 1012.1 - 0.0 - - - - - - -
29/02:00am 25.5 ENE 4 4 1012.5 - 0.0 - - - - - - -
29/01:30am 24.7 ENE 3 4 1012.6 - 0.0 - - - - - - -
29/01:00am 25.0 ESE 3 4 1012.8 - 0.0 - - - - - - -
29/12:30am 25.1 CALM 0 0 1013.0 - 0.0 - - - - - - -
29/12:00am 25.0 E 3 4 1012.9 - 0.0 - - - - - - -
 
Date/Time
WST
Temp
°C
Wind Pressure Rain since
9am
mm
Weather Cloud Vis
km
Sea
Height
m
Swell
Dir  Spd
kts
Gust
kts
hPa Trend Height
m
Period
s
Dir
28/11:30pm 25.7 NE 4 5 1012.9 - 0.0 - - - - - - -
28/11:00pm 25.4 N 1 4 1013.0 - 0.0 - - - - - - -
28/10:30pm 25.4 NE 4 5 1013.3 - 0.0 - - - - - - -
28/10:00pm 25.5 CALM 0 0 1013.2 - 0.0 - - - - - - -
28/09:30pm 26.0 NNE 1 3 1013.3 - 0.0 - - - - - - -
28/09:00pm 27.1 S 4 5 1013.2 - 0.0 - - - - - - -
28/08:30pm 27.5 SE 4 5 1013.3 - 0.0 - - - - - - -
28/08:00pm 27.5 NE 8 9 1012.9 - 0.0 - - - - - - -
28/07:30pm 26.3 SE 4 5 1013.1 - 0.0 - - - - - - -
28/07:00pm 26.7 ESE 4 5 1012.8 - 0.0 - - - - - - -
28/06:30pm 27.4 ENE 1 4 1012.6 - 0.0 - - - - - - -
28/06:00pm 28.2 ESE 3 4 1012.3 - 0.0 - - - - - - -
28/05:30pm 28.8 SE 7 8 1011.9 - 0.0 - - - - - - -
28/05:00pm 29.4 SE 5 7 1011.8 - 0.0 - - - - - - -
28/04:30pm 31.1 E 8 10 1011.4 - 0.0 - - - - - - -
28/04:00pm 31.9 E 8 11 1011.1 - 0.0 - - - - - - -
28/03:30pm 32.5 E 9 11 1011.0 - 0.0 - - - - - - -
28/03:00pm 33.0 E 9 11 1010.9 - 0.0 - - - - - - -
28/02:30pm 33.4 E 11 16 1011.0 - 0.0 - - - - - - -
28/02:00pm 33.6 ESE 10 14 1011.2 - 0.0 - - - - - - -
28/01:30pm 33.5 E 12 17 1011.3 - 0.0 - - - - - - -
28/01:00pm 34.1 E 10 17 1011.4 - 0.0 - - - - - - -
28/12:30pm 34.3 E 11 16 1011.8 - 0.0 - - - - - - -
28/12:00pm 33.6 ESE 11 17 1012.3 - 0.0 - - - - - - -
28/11:30am 33.3 E 11 16 1012.9 - 0.0 - - - - - - -
28/11:00am 32.9 ENE 12 16 1013.4 - 0.0 - - - - - - -
28/10:30am 32.4 E 9 13 1013.9 - 0.0 - - - - - - -
28/10:00am 31.6 E 10 14 1014.3 - 0.0 - - - - - - -
28/09:30am 31.4 E 10 14 1014.4 - 0.0 - - - - - - -
28/09:00am 30.3 E 9 13 1014.7 - 0.0 - - - - - - -
28/08:30am 28.7 NE 5 8 1014.7 - 0.0 - - - - - - -
28/08:00am 28.2 ENE 5 7 1014.5 - 0.0 - - - - - - -
28/07:30am 27.2 E 7 9 1014.1 - 0.0 - - - - - - -
28/07:00am 23.0 E 4 6 1013.9 - 0.0 - - - - - - -
28/06:30am 23.3 ENE 6 7 1013.4 - 0.0 - - - - - - -
28/06:00am 19.2 ENE 5 6 1013.2 - 0.0 - - - - - - -
28/05:30am 20.5 ENE 5 6 1012.8 - 0.0 - - - - - - -
28/05:00am 21.2 ENE 5 6 1012.5 - 0.0 - - - - - - -
28/04:30am 19.9 ENE 5 6 1012.4 - 0.0 - - - - - - -
28/04:00am 21.4 ENE 5 6 1012.4 - 0.0 - - - - - - -
28/03:30am 19.0 ENE 4 5 1012.3 - 0.0 - - - - - - -
28/03:00am 19.0 ESE 3 4 1012.4 - 0.0 - - - - - - -
28/02:30am 18.5 ESE 3 4 1012.4 - 0.0 - - - - - - -
28/02:00am 19.4 ESE 3 4 1012.6 - 0.0 - - - - - - -
28/01:30am 18.1 SE 6 6 1012.7 - 0.0 - - - - - - -
28/01:00am 19.8 ESE 4 5 1012.8 - 0.0 - - - - - - -
28/12:30am 19.0 E 4 5 1012.9 - 0.0 - - - - - - -
28/12:00am 19.3 E 3 4 1013.0 - 0.0 - - - - - - -
 
Date/Time
WST
Temp
°C
Wind Pressure Rain since
9am
mm
Weather Cloud Vis
km
Sea
Height
m
Swell
Dir  Spd
kts
Gust
kts
hPa Trend Height
m
Period
s
Dir
27/11:30pm 19.8 ESE 3 4 1013.0 - 0.0 - - - - - - -
27/11:00pm 19.7 ESE 4 5 1013.1 - 0.0 - - - - - - -
27/10:30pm 21.4 ESE 5 6 1013.3 - 0.0 - - - - - - -
27/10:00pm 22.1 E 5 5 1013.6 - 0.0 - - - - - - -
27/09:30pm 22.7 ESE 6 6 1013.6 - 0.0 - - - - - - -
27/09:00pm 22.7 SE 5 6 1013.6 - 0.0 - - - - - - -

Other Formats:

Comma delimited format used in spreadsheet applications
http://www.bom.gov.au/fwo/IDW60701/IDW60701.95214.axf

JavaScript Object Notation format (JSON) in row-major order
http://www.bom.gov.au/fwo/IDW60701/IDW60701.95214.json